Time;durP1;ratioP1;P1;durP2;ratioP2;P2;SDS_P1;SDS_P2;PMS_P1;PMS_P2;Temp;Humidity;BMP_temperature;BMP_pressure;BME280_temperature;BME280_humidity;BME280_pressure;Samples;Min_cycle;Max_cycle;Signal;HPM_P1;HPM_P2
2024/03/01 00:00:45;;;;;;;25.48;14.40;;;12.50;99.90;;;;;;4977283;28;20117;-55
2024/03/01 00:03:11;;;;;;;22.17;11.77;;;12.50;99.90;;;;;;4966511;28;20063;-65
2024/03/01 00:05:37;;;;;;;21.17;14.50;;;12.50;99.90;;;;;;4954662;28;20039;-66
2024/03/01 00:08:03;;;;;;;21.15;14.15;;;12.50;99.90;;;;;;4957579;29;20113;-65
2024/03/01 00:10:28;;;;;;;21.42;14.10;;;12.50;99.90;;;;;;4957512;29;20046;-55
2024/03/01 00:12:54;;;;;;;21.20;10.73;;;12.40;99.90;;;;;;4955778;29;20036;-57
2024/03/01 00:15:20;;;;;;;20.15;14.05;;;;;;;;;;4923791;29;20051;-57
2024/03/01 00:17:46;;;;;;;23.52;15.88;;;12.40;99.90;;;;;;4957539;29;20035;-58
2024/03/01 00:20:12;;;;;;;22.65;14.05;;;12.40;99.90;;;;;;4957559;29;20388;-58
2024/03/01 00:22:38;;;;;;;18.05;12.38;;;12.40;99.90;;;;;;4957600;28;20388;-63
2024/03/01 00:25:09;;;;;;;20.35;13.88;;;12.30;99.90;;;;;;4957394;28;20390;-57
2024/03/01 00:27:35;;;;;;;17.88;13.27;;;12.30;99.90;;;;;;4957286;28;20031;-57
2024/03/01 00:30:01;;;;;;;24.15;15.40;;;12.30;99.90;;;;;;4957337;29;20061;-53
2024/03/01 00:32:27;;;;;;;23.52;15.25;;;12.40;99.90;;;;;;4957206;29;20035;-50
2024/03/01 00:34:52;;;;;;;25.27;16.08;;;12.40;99.90;;;;;;4955518;29;20035;-61
2024/03/01 00:37:18;;;;;;;19.80;13.02;;;12.30;99.90;;;;;;4957207;29;20051;-57
2024/03/01 00:39:44;;;;;;;22.35;15.77;;;12.20;99.90;;;;;;4957135;29;20436;-58
2024/03/01 00:42:10;;;;;;;21.70;15.70;;;12.30;99.90;;;;;;4955275;29;20048;-64
2024/03/01 00:44:36;;;;;;;20.73;14.88;;;;;;;;;;4956854;29;20035;-55
2024/03/01 00:47:01;;;;;;;24.75;15.73;;;12.10;99.90;;;;;;4957080;29;20102;-57
2024/03/01 00:49:27;;;;;;;21.58;15.38;;;12.20;99.90;;;;;;4956880;29;20115;-61
2024/03/01 00:51:53;;;;;;;24.65;14.15;;;12.20;99.90;;;;;;4955149;29;20110;-59
2024/03/01 00:54:18;;;;;;;24.10;15.52;;;12.10;99.90;;;;;;4954867;29;20043;-58
2024/03/01 00:56:45;;;;;;;21.70;15.68;;;12.10;99.90;;;;;;4956804;29;20027;-61
2024/03/01 00:59:11;;;;;;;23.80;15.68;;;12.10;99.90;;;;;;4957014;29;20035;-58
2024/03/01 01:01:37;;;;;;;20.10;15.52;;;12.00;99.90;;;;;;4956705;29;20035;-65
2024/03/01 01:04:03;;;;;;;24.98;16.15;;;12.10;99.90;;;;;;4965385;28;20035;-56
2024/03/01 01:06:28;;;;;;;21.63;15.13;;;12.00;99.90;;;;;;4925813;28;20074;-60
2024/03/01 01:09:31;;;;;;;22.15;13.63;;;11.90;99.90;;;;;;4958068;28;20035;-56
2024/03/01 01:11:57;;;;;;;25.95;15.90;;;11.90;99.90;;;;;;4957537;28;20042;-65
2024/03/01 01:14:23;;;;;;;21.13;15.13;;;11.80;99.90;;;;;;4957958;28;20039;-57
2024/03/01 01:16:48;;;;;;;20.40;16.13;;;11.70;99.90;;;;;;4975408;28;20030;-57
2024/03/01 01:19:14;;;;;;;22.63;16.00;;;11.70;99.90;;;;;;4975620;28;20035;-58
2024/03/01 01:21:40;;;;;;;24.25;16.45;;;11.80;99.90;;;;;;4975616;28;20038;-49
2024/03/01 01:24:06;;;;;;;22.17;15.88;;;11.80;99.90;;;;;;4975572;28;20027;-60
2024/03/01 01:26:32;;;;;;;24.48;15.65;;;11.80;99.90;;;;;;4975429;28;20027;-57
2024/03/01 01:28:58;;;;;;;26.17;16.70;;;11.80;99.90;;;;;;4975564;28;20085;-64
2024/03/01 01:31:24;;;;;;;24.48;16.15;;;11.80;99.90;;;;;;4975567;28;20027;-55
2024/03/01 01:33:49;;;;;;;24.08;15.68;;;11.70;99.90;;;;;;4957409;28;20039;-53
2024/03/01 01:36:15;;;;;;;22.42;15.98;;;11.70;99.90;;;;;;4957562;28;20045;-57
2024/03/01 01:38:41;;;;;;;23.77;15.68;;;11.70;99.90;;;;;;4975120;28;20073;-63
2024/03/01 01:41:06;;;;;;;20.25;15.88;;;11.80;99.90;;;;;;4975209;28;20394;-57
2024/03/01 01:43:33;;;;;;;21.10;15.32;;;11.90;99.90;;;;;;4973508;28;20046;-62
2024/03/01 01:45:58;;;;;;;24.33;15.57;;;11.90;99.90;;;;;;4957212;28;20042;-60
2024/03/01 01:48:24;;;;;;;18.70;12.70;;;11.90;99.90;;;;;;4957028;28;20042;-60
2024/03/01 01:50:50;;;;;;;19.95;13.57;;;11.70;99.90;;;;;;4975080;28;20031;-61
2024/03/01 01:53:17;;;;;;;14.57;10.60;;;11.70;99.90;;;;;;4975397;28;20041;-54
2024/03/01 01:55:44;;;;;;;25.08;15.98;;;11.70;99.90;;;;;;4989818;28;20069;-57
2024/03/01 01:58:10;;;;;;;17.50;13.80;;;11.80;99.90;;;;;;4994809;28;20062;-49
2024/03/01 02:00:36;;;;;;;20.42;13.57;;;11.70;99.90;;;;;;4996532;28;20042;-62
2024/03/01 02:03:02;;;;;;;21.13;14.32;;;11.70;99.90;;;;;;4960218;28;20121;-62
2024/03/01 02:05:28;;;;;;;21.60;14.85;;;11.80;99.90;;;;;;4943936;28;20038;-59
2024/03/01 02:07:55;;;;;;;20.90;13.60;;;11.70;99.90;;;;;;4994201;28;20033;-54
2024/03/01 02:10:22;;;;;;;21.13;15.90;;;11.70;99.90;;;;;;4994221;28;20033;-54
2024/03/01 02:12:58;;;;;;;19.77;13.82;;;11.70;99.90;;;;;;4994318;28;20113;-55
2024/03/01 02:15:25;;;;;;;20.27;15.00;;;11.70;99.90;;;;;;4994247;28;20395;-56
2024/03/01 02:17:51;;;;;;;20.98;14.48;;;11.70;99.90;;;;;;4993953;28;20490;-60
2024/03/01 02:20:20;;;;;;;23.35;16.08;;;11.70;99.90;;;;;;4994166;28;20037;-57
2024/03/01 02:22:52;;;;;;;20.33;14.93;;;11.80;99.90;;;;;;4994436;28;20090;-61
2024/03/01 02:25:18;;;;;;;23.10;17.60;;;11.80;99.90;;;;;;4994217;28;20385;-56
2024/03/01 02:27:46;;;;;;;23.25;16.15;;;11.70;99.90;;;;;;4959915;28;20026;-62
2024/03/01 02:30:13;;;;;;;20.88;13.98;;;11.70;99.90;;;;;;4994228;28;20058;-56
2024/03/01 02:32:39;;;;;;;19.70;14.23;;;11.70;99.90;;;;;;4944452;28;20048;-54
2024/03/01 02:35:05;;;;;;;22.98;15.82;;;11.70;99.90;;;;;;4993838;28;20105;-54
2024/03/01 02:37:31;;;;;;;24.30;16.17;;;11.70;99.90;;;;;;4943920;28;20042;-52
2024/03/01 02:39:57;;;;;;;18.85;12.80;;;11.70;99.90;;;;;;4993894;28;20034;-54
2024/03/01 02:42:22;;;;;;;23.80;16.77;;;11.70;99.90;;;;;;4993744;28;20105;-57
2024/03/01 02:44:48;;;;;;;23.08;14.82;;;11.80;99.90;;;;;;4993831;28;20030;-59
2024/03/01 02:47:14;;;;;;;25.13;15.60;;;11.80;99.90;;;;;;4978104;28;20065;-61
2024/03/01 02:49:40;;;;;;;21.33;15.75;;;11.80;99.90;;;;;;4974518;28;20422;-62
2024/03/01 02:52:06;;;;;;;20.63;15.32;;;11.80;99.90;;;;;;4974336;28;20027;-60
2024/03/01 02:54:32;;;;;;;16.38;13.02;;;11.80;99.90;;;;;;4979965;28;20144;-53
2024/03/01 02:56:58;;;;;;;19.25;13.38;;;11.80;99.90;;;;;;4993582;28;20086;-56
2024/03/01 02:59:24;;;;;;;22.35;16.85;;;11.80;99.90;;;;;;4993638;28;20466;-58
2024/03/01 03:01:50;;;;;;;21.83;15.55;;;11.70;99.90;;;;;;4993584;28;20050;-60
2024/03/01 03:04:16;;;;;;;24.80;15.45;;;11.70;99.90;;;;;;4993636;28;20380;-49
2024/03/01 03:06:42;;;;;;;23.48;15.23;;;11.70;99.90;;;;;;4993814;28;20352;-59
2024/03/01 03:09:09;;;;;;;19.80;14.40;;;11.70;99.90;;;;;;4993648;28;20110;-56
2024/03/01 03:11:38;;;;;;;21.23;14.30;;;11.70;99.90;;;;;;4993484;28;20037;-61
2024/03/01 03:14:04;;;;;;;26.73;14.77;;;11.70;99.90;;;;;;4993508;28;20077;-62
2024/03/01 03:16:30;;;;;;;21.60;15.27;;;11.70;99.90;;;;;;4993720;28;20054;-61
2024/03/01 03:18:56;;;;;;;19.70;15.50;;;11.80;99.90;;;;;;4943464;28;20043;-59
2024/03/01 03:21:22;;;;;;;22.52;15.50;;;11.80;99.90;;;;;;4943343;28;20471;-58
2024/03/01 03:23:47;;;;;;;22.05;15.30;;;11.80;99.90;;;;;;4993546;28;20026;-65
2024/03/01 03:26:13;;;;;;;21.88;14.60;;;11.80;99.90;;;;;;4993358;28;20058;-59
2024/03/01 03:28:39;;;;;;;23.02;13.70;;;11.90;99.90;;;;;;4993461;28;20039;-61
2024/03/01 03:31:04;;;;;;;22.20;14.30;;;11.80;99.90;;;;;;4993320;28;20072;-58
2024/03/01 03:33:33;;;;;;;20.40;13.63;;;11.80;99.90;;;;;;4993685;28;20117;-58
2024/03/01 03:35:59;;;;;;;22.15;14.80;;;11.90;99.90;;;;;;4993692;28;20034;-57
2024/03/01 03:38:25;;;;;;;16.38;12.90;;;11.90;99.90;;;;;;4943658;28;20086;-62
2024/03/01 03:40:51;;;;;;;10.95;6.63;;;11.90;99.90;;;;;;4996120;28;20054;-61
2024/03/01 03:43:17;;;;;;;20.92;14.10;;;11.80;99.90;;;;;;4996923;28;20401;-61
2024/03/01 03:45:43;;;;;;;22.40;14.07;;;11.90;99.90;;;;;;4962563;28;20077;-55
2024/03/01 03:48:09;;;;;;;19.95;14.55;;;11.90;99.90;;;;;;4996824;28;20030;-63
2024/03/01 03:50:35;;;;;;;19.95;13.70;;;11.90;99.90;;;;;;4944281;28;20042;-53
2024/03/01 03:53:01;;;;;;;18.90;12.80;;;11.90;99.90;;;;;;4946670;28;20038;-55
2024/03/01 03:55:27;;;;;;;20.35;14.05;;;11.90;99.90;;;;;;4959085;28;20074;-55
2024/03/01 03:57:53;;;;;;;21.55;15.52;;;;;;;;;;4959192;28;20530;-60
2024/03/01 04:00:19;;;;;;;19.55;13.65;;;12.00;99.90;;;;;;4977155;28;20114;-53
2024/03/01 04:02:45;;;;;;;20.77;13.43;;;12.00;99.90;;;;;;4977076;28;20095;-53
2024/03/01 04:05:11;;;;;;;18.92;13.63;;;12.00;99.90;;;;;;4976875;28;20035;-57
2024/03/01 04:07:37;;;;;;;21.00;12.95;;;12.00;99.90;;;;;;4977024;28;20034;-62
2024/03/01 04:10:06;;;;;;;21.35;13.80;;;12.00;99.90;;;;;;4975149;28;20035;-52
2024/03/01 04:12:32;;;;;;;18.63;12.65;;;12.10;99.90;;;;;;4943982;28;20039;-60
2024/03/01 04:14:58;;;;;;;16.52;12.70;;;12.00;99.90;;;;;;4977016;28;20027;-59
2024/03/01 04:17:24;;;;;;;17.30;12.00;;;12.20;99.90;;;;;;4976635;28;20029;-59
2024/03/01 04:19:50;;;;;;;17.20;12.70;;;12.10;99.90;;;;;;4976695;28;20483;-51
2024/03/01 04:22:16;;;;;;;15.95;10.52;;;12.10;99.90;;;;;;4954708;29;20047;-58
2024/03/01 04:24:43;;;;;;;15.18;11.38;;;12.00;99.90;;;;;;4955376;29;20051;-62
2024/03/01 04:27:11;;;;;;;17.17;11.00;;;12.00;99.90;;;;;;4955397;29;20141;-61
2024/03/01 04:29:37;;;;;;;15.95;11.95;;;11.90;99.90;;;;;;4955032;29;20047;-62
2024/03/01 04:32:03;;;;;;;19.52;12.18;;;12.00;99.90;;;;;;4955383;29;20442;-60
2024/03/01 04:34:29;;;;;;;18.90;13.75;;;11.90;99.90;;;;;;4856557;29;20547;-57
2024/03/01 04:36:58;;;;;;;16.92;11.57;;;12.00;99.90;;;;;;4916661;29;20123;-53
2024/03/01 04:39:25;;;;;;;19.02;11.95;;;12.00;99.90;;;;;;4916920;29;20047;-63
2024/03/01 04:41:51;;;;;;;16.02;12.15;;;12.00;99.90;;;;;;4916862;29;20052;-59
2024/03/01 04:44:17;;;;;;;15.20;11.82;;;12.00;99.90;;;;;;4916783;29;20036;-57
2024/03/01 04:46:43;;;;;;;16.17;11.50;;;12.00;99.90;;;;;;4885447;29;20433;-52
2024/03/01 04:49:09;;;;;;;15.77;10.80;;;12.00;99.90;;;;;;4916699;29;20032;-52
2024/03/01 04:51:35;;;;;;;14.98;10.75;;;12.10;99.90;;;;;;4853645;29;20512;-62
2024/03/01 04:54:00;;;;;;;17.88;11.38;;;12.10;99.90;;;;;;4950579;28;20047;-58
2024/03/01 04:56:26;;;;;;;15.27;10.27;;;12.10;99.90;;;;;;4976025;28;20035;-53
2024/03/01 04:58:52;;;;;;;13.65;9.75;;;12.10;99.90;;;;;;4942170;28;20043;-54
2024/03/01 05:01:18;;;;;;;15.38;10.57;;;12.00;99.90;;;;;;4951755;28;20038;-56
2024/03/01 05:03:44;;;;;;;13.50;10.38;;;12.00;99.90;;;;;;4995544;28;20459;-52
2024/03/01 05:06:10;;;;;;;14.13;8.73;;;12.00;99.90;;;;;;4995487;28;20063;-57
2024/03/01 05:08:36;;;;;;;13.25;9.68;;;12.00;99.90;;;;;;4995359;28;20026;-57
2024/03/01 05:11:02;;;;;;;14.70;10.48;;;12.00;99.90;;;;;;4994972;28;20044;-56
2024/03/01 05:13:28;;;;;;;14.27;10.82;;;12.00;99.90;;;;;;4995018;28;20034;-60
2024/03/01 05:15:54;;;;;;;14.63;9.57;;;12.00;99.90;;;;;;4994543;28;20031;-63
2024/03/01 05:18:20;;;;;;;14.90;10.52;;;12.10;99.90;;;;;;4994254;28;20049;-60
2024/03/01 05:20:46;;;;;;;16.67;11.10;;;12.00;99.90;;;;;;4994708;28;20394;-63
2024/03/01 05:23:12;;;;;;;14.60;10.60;;;12.10;99.90;;;;;;4994438;28;20541;-61
2024/03/01 05:25:38;;;;;;;14.38;10.57;;;12.20;99.90;;;;;;4994777;28;20058;-54
2024/03/01 05:28:05;;;;;;;16.85;11.32;;;12.30;99.90;;;;;;4994175;28;20030;-56
2024/03/01 05:30:35;;;;;;;14.18;10.13;;;12.20;99.90;;;;;;4935734;28;20080;-61
2024/03/01 05:33:02;;;;;;;15.55;10.60;;;12.10;99.90;;;;;;4991989;28;20081;-64
2024/03/01 05:35:28;;;;;;;17.60;10.30;;;12.10;99.90;;;;;;4993876;28;20110;-65
2024/03/01 05:37:58;;;;;;;16.83;10.98;;;12.00;99.90;;;;;;4993919;28;20077;-56
2024/03/01 05:40:24;;;;;;;17.35;11.10;;;;;;;;;;4994224;28;20034;-57
2024/03/01 05:42:51;;;;;;;15.38;10.65;;;11.90;99.90;;;;;;4994062;28;20026;-56
2024/03/01 05:45:17;;;;;;;14.85;10.05;;;11.90;99.90;;;;;;4985310;28;20487;-57
2024/03/01 05:47:44;;;;;;;14.00;9.20;;;12.00;99.90;;;;;;4987215;28;20252;-59
2024/03/01 05:50:12;;;;;;;10.98;7.25;;;12.00;99.90;;;;;;4981345;28;20031;-59
2024/03/01 05:52:39;;;;;;;11.98;8.75;;;12.00;99.90;;;;;;4974962;28;20033;-62
2024/03/01 05:55:05;;;;;;;12.30;9.15;;;12.00;99.90;;;;;;4975033;28;20117;-54
2024/03/01 05:57:32;;;;;;;16.83;11.52;;;12.10;99.90;;;;;;4893142;28;20039;-56
2024/03/01 05:59:58;;;;;;;16.38;11.07;;;12.10;99.90;;;;;;4982032;28;20027;-53
2024/03/01 06:02:24;;;;;;;13.27;9.27;;;12.10;99.90;;;;;;4978206;28;20434;-54
2024/03/01 06:04:50;;;;;;;13.63;8.27;;;12.20;99.90;;;;;;4974236;28;20102;-56
2024/03/01 06:07:16;;;;;;;12.32;8.68;;;12.10;99.90;;;;;;4956819;28;20070;-51
2024/03/01 06:09:42;;;;;;;16.70;10.27;;;12.10;99.90;;;;;;4956746;28;20047;-52
2024/03/01 06:12:08;;;;;;;15.32;8.88;;;12.00;99.90;;;;;;4975173;28;20026;-52
2024/03/01 06:14:34;;;;;;;10.95;5.95;;;12.00;99.90;;;;;;4975624;28;20098;-47
2024/03/01 06:17:01;;;;;;;14.30;9.80;;;;;;;;;;4992224;28;20117;-54
2024/03/01 06:19:27;;;;;;;14.80;10.40;;;12.00;99.90;;;;;;4976476;28;20458;-51
2024/03/01 06:21:55;;;;;;;15.02;10.23;;;12.20;99.90;;;;;;4951367;28;20132;-57
2024/03/01 06:24:22;;;;;;;13.88;9.30;;;12.20;99.90;;;;;;4991883;28;20455;-57
2024/03/01 06:26:49;;;;;;;12.27;8.63;;;12.20;99.90;;;;;;4982882;28;21024;-55
2024/03/01 06:29:16;;;;;;;12.32;7.32;;;12.20;99.90;;;;;;4993446;28;20034;-58
2024/03/01 06:31:42;;;;;;;14.63;7.60;;;12.10;99.90;;;;;;4991770;28;20054;-58
2024/03/01 06:34:08;;;;;;;11.93;8.02;;;12.20;99.90;;;;;;4989336;28;20441;-55
2024/03/01 06:36:34;;;;;;;14.88;9.52;;;12.30;99.90;;;;;;4992695;28;20076;-58
2024/03/01 06:39:00;;;;;;;14.63;9.60;;;12.80;99.90;;;;;;4993769;28;20034;-56
2024/03/01 06:41:25;;;;;;;14.32;8.82;;;13.10;99.90;;;;;;4993861;28;20031;-61
2024/03/01 06:43:51;;;;;;;12.70;9.35;;;13.70;99.90;;;;;;4993782;28;20030;-59
2024/03/01 06:46:17;;;;;;;11.82;7.18;;;14.30;99.90;;;;;;4994036;28;20043;-55
2024/03/01 06:48:43;;;;;;;15.60;8.27;;;13.80;99.90;;;;;;4943950;28;20096;-59
2024/03/01 06:51:09;;;;;;;11.05;7.88;;;14.00;99.90;;;;;;4943948;28;20037;-56
2024/03/01 06:53:34;;;;;;;11.07;7.05;;;14.20;99.90;;;;;;4943889;28;20038;-57
2024/03/01 06:56:04;;;;;;;10.63;6.55;;;;;;;;;;4993630;28;20050;-56
2024/03/01 06:58:29;;;;;;;11.90;7.10;;;15.00;99.90;;;;;;4959818;28;20509;-55
2024/03/01 07:00:55;;;;;;;10.45;6.45;;;14.80;99.90;;;;;;4993927;28;20026;-55
2024/03/01 07:03:21;;;;;;;12.32;7.07;;;14.90;99.90;;;;;;4993961;28;20027;-57
2024/03/01 07:05:47;;;;;;;9.88;8.05;;;;;;;;;;4943895;28;20082;-57
2024/03/01 07:08:13;;;;;;;12.05;8.55;;;15.10;99.90;;;;;;4993626;28;20022;-56
2024/03/01 07:10:39;;;;;;;11.45;7.55;;;15.10;99.90;;;;;;4959659;28;20402;-58
2024/03/01 07:13:04;;;;;;;11.63;6.57;;;15.10;99.90;;;;;;4993614;28;20030;-59
2024/03/01 07:15:30;;;;;;;11.55;8.00;;;15.50;99.90;;;;;;4996369;28;20113;-56
2024/03/01 07:17:59;;;;;;;11.25;8.05;;;;;;;;;;4994428;28;20034;-55
2024/03/01 07:20:25;;;;;;;12.60;7.65;;;16.80;98.70;;;;;;4997336;28;20026;-55
2024/03/01 07:22:51;;;;;;;7.97;5.97;;;17.00;99.90;;;;;;4997341;28;20023;-60
2024/03/01 07:25:17;;;;;;;7.32;6.00;;;;;;;;;;4997292;28;20022;-59
2024/03/01 07:27:44;;;;;;;10.55;6.35;;;;;;;;;;4997240;28;20027;-59
2024/03/01 07:30:10;;;;;;;10.55;6.93;;;;;;;;;;4997116;28;20027;-53
2024/03/01 07:32:37;;;;;;;9.35;6.40;;;18.00;99.90;;;;;;4997278;28;20030;-59
2024/03/01 07:35:03;;;;;;;13.13;7.47;;;;;;;;;;4997143;28;20045;-55
2024/03/01 07:37:30;;;;;;;8.65;5.13;;;18.50;99.90;;;;;;4963074;28;20039;-60
2024/03/01 07:39:57;;;;;;;8.95;6.25;;;18.10;94.40;;;;;;4996927;28;20062;-58
2024/03/01 07:42:23;;;;;;;8.32;5.38;;;18.20;94.20;;;;;;4997138;28;20049;-55
2024/03/01 07:44:49;;;;;;;8.85;5.90;;;;;;;;;;4997270;28;20573;-58
2024/03/01 07:47:15;;;;;;;6.78;4.07;;;18.40;97.50;;;;;;4996942;28;20022;-57
2024/03/01 07:49:41;;;;;;;8.70;5.10;;;18.20;95.70;;;;;;4996788;28;20117;-56
2024/03/01 07:52:07;;;;;;;13.30;7.15;;;18.50;97.50;;;;;;4996991;28;20046;-59
2024/03/01 07:54:32;;;;;;;11.32;6.40;;;19.10;99.90;;;;;;4979150;28;20047;-56
2024/03/01 07:56:58;;;;;;;10.25;4.72;;;18.70;99.20;;;;;;4946708;28;20038;-56
2024/03/01 07:59:24;;;;;;;12.68;7.85;;;17.10;93.30;;;;;;4996636;28;20065;-57
2024/03/01 08:01:50;;;;;;;7.68;5.00;;;17.80;97.90;;;;;;4996613;28;20035;-58
2024/03/01 08:04:16;;;;;;;8.75;4.35;;;18.40;94.90;;;;;;4946323;28;20038;-59
2024/03/01 08:06:42;;;;;;;9.88;7.32;;;;;;;;;;4996514;28;20100;-57
2024/03/01 08:09:18;;;;;;;11.35;6.55;;;19.30;99.40;;;;;;4962181;28;20038;-61
2024/03/01 08:11:45;;;;;;;11.50;7.10;;;19.50;94.40;;;;;;4978453;28;20117;-55
2024/03/01 08:14:22;;;;;;;10.25;6.47;;;;;;;;;;4996304;28;20042;-56
2024/03/01 08:16:52;;;;;;;8.63;5.13;;;;;;;;;;4996374;28;20033;-59
2024/03/01 08:19:19;;;;;;;7.82;4.65;;;19.80;91.50;;;;;;4993783;28;20034;-56
2024/03/01 08:21:46;;;;;;;10.38;7.07;;;19.40;91.70;;;;;;4995068;28;20113;-58
2024/03/01 08:24:19;;;;;;;8.98;6.18;;;19.60;91.60;;;;;;4991951;28;20020;-56
2024/03/01 08:26:46;;;;;;;11.73;6.97;;;;;;;;;;4988806;28;20026;-52
2024/03/01 08:29:13;;;;;;;9.10;5.07;;;;;;;;;;4995846;28;20033;-47
2024/03/01 08:31:39;;;;;;;9.15;5.70;;;;;;;;;;4995152;28;20034;-55
2024/03/01 08:34:09;;;;;;;6.53;5.07;;;;;;;;;;4994775;28;20022;-61
2024/03/01 08:36:37;;;;;;;11.43;5.85;;;;;;;;;;4994795;28;20026;-55
2024/03/01 08:39:05;;;;;;;6.13;4.47;;;;;;;;;;4994596;28;20120;-61
2024/03/01 08:41:32;;;;;;;5.85;4.22;;;20.10;97.60;;;;;;4994694;28;20226;-56
2024/03/01 08:43:58;;;;;;;8.65;4.88;;;20.30;92.80;;;;;;4993680;28;20049;-50
2024/03/01 08:46:30;;;;;;;8.00;5.13;;;;;;;;;;4992264;28;20105;-59
2024/03/01 08:48:56;;;;;;;9.75;5.68;;;;;;;;;;4995198;28;20165;-48
2024/03/01 08:51:22;;;;;;;8.10;5.93;;;21.80;88.50;;;;;;4990877;28;20030;-49
2024/03/01 08:54:01;;;;;;;8.52;5.50;;;21.40;87.10;;;;;;4993383;28;20363;-52
2024/03/01 08:56:35;;;;;;;10.38;4.90;;;20.40;88.60;;;;;;4994989;28;20054;-52
2024/03/01 08:59:08;;;;;;;7.63;5.63;;;20.30;89.40;;;;;;4995502;28;20475;-53
2024/03/01 09:01:46;;;;;;;15.40;8.77;;;20.30;89.70;;;;;;4995505;28;20185;-48
2024/03/01 09:04:14;;;;;;;7.75;3.90;;;;;;;;;;4994737;28;20030;-51
2024/03/01 09:06:40;;;;;;;12.98;5.93;;;18.70;90.40;;;;;;4994803;28;20082;-51
2024/03/01 09:09:19;;;;;;;6.43;4.70;;;19.60;90.70;;;;;;4994962;28;20049;-52
2024/03/01 09:11:45;;;;;;;8.73;4.82;;;19.70;90.60;;;;;;4994969;28;20076;-51
2024/03/01 09:14:26;;;;;;;7.05;3.78;;;20.50;90.30;;;;;;4994755;28;20109;-52
2024/03/01 09:16:52;;;;;;;9.23;5.07;;;;;;;;;;4992021;28;20168;-51
2024/03/01 09:19:20;;;;;;;5.60;3.70;;;;;;;;;;4949748;28;20077;-51
2024/03/01 09:21:46;;;;;;;7.28;4.22;;;20.60;99.40;;;;;;4965576;28;20042;-49
2024/03/01 09:24:14;;;;;;;8.80;5.50;;;;;;;;;;4925365;28;20045;-51
2024/03/01 09:26:40;;;;;;;10.30;6.38;;;;;;;;;;4970846;28;20066;-50
2024/03/01 09:29:06;;;;;;;9.02;5.60;;;;;;;;;;4973399;28;20019;-50
2024/03/01 09:31:33;;;;;;;12.77;6.75;;;;;;;;;;4941502;28;20516;-50
2024/03/01 09:34:09;;;;;;;4.60;3.55;;;23.30;99.90;;;;;;4957100;28;20039;-50
2024/03/01 09:36:35;;;;;;;4.28;2.95;;;;;;;;;;4973366;28;20078;-51
2024/03/01 09:39:04;;;;;;;11.48;4.65;;;21.40;99.90;;;;;;4973087;28;20526;-50
2024/03/01 09:41:43;;;;;;;5.25;2.95;;;;;;;;;;4973238;28;20035;-50
2024/03/01 09:44:26;;;;;;;9.18;5.55;;;;;;;;;;4973233;28;20037;-51
2024/03/01 09:46:52;;;;;;;13.10;5.55;;;;;;;;;;4973255;28;20043;-50
2024/03/01 09:49:29;;;;;;;9.88;4.20;;;19.80;88.80;;;;;;4957007;28;20415;-50
2024/03/01 09:52:01;;;;;;;6.55;3.60;;;;;;;;;;4973444;28;20062;-50
2024/03/01 09:54:27;;;;;;;5.75;3.25;;;;;;;;;;4974752;28;20058;-51
2024/03/01 09:57:02;;;;;;;10.10;6.30;;;;;;;;;;4975073;28;20038;-49
2024/03/01 09:59:30;;;;;;;6.90;3.42;;;;;;;;;;4974908;28;20093;-50
2024/03/01 10:02:05;;;;;;;12.55;4.60;;;;;;;;;;4975168;28;20031;-51
2024/03/01 10:04:55;;;;;;;8.50;4.70;;;18.70;99.90;;;;;;4975287;28;20076;-52
2024/03/01 10:07:34;;;;;;;10.13;4.40;;;;;;;;;;4975036;28;20438;-51
2024/03/01 10:10:22;;;;;;;13.35;6.20;;;18.40;91.60;;;;;;4941071;28;20070;-50
2024/03/01 10:12:59;;;;;;;6.70;4.65;;;18.30;91.90;;;;;;4974535;28;20110;-52
2024/03/01 10:15:41;;;;;;;6.80;3.72;;;18.20;92.20;;;;;;4980733;28;20171;-49
2024/03/01 10:18:25;;;;;;;8.48;4.78;;;18.00;92.10;;;;;;4993323;28;20038;-51
2024/03/01 10:20:55;;;;;;;6.55;4.25;;;18.30;99.90;;;;;;4994012;28;20463;-50
2024/03/01 10:23:23;;;;;;;11.10;5.22;;;18.40;99.90;;;;;;4994004;28;20395;-50
2024/03/01 10:26:06;;;;;;;10.95;4.55;;;18.70;99.90;;;;;;4975974;28;20038;-52
2024/03/01 10:28:50;;;;;;;8.95;4.05;;;18.80;99.90;;;;;;4994075;28;20041;-52
2024/03/01 10:31:27;;;;;;;7.93;4.30;;;19.00;98.80;;;;;;4992851;28;20076;-52
2024/03/01 10:34:04;;;;;;;15.52;5.35;;;19.40;92.10;;;;;;4993860;28;20034;-52
2024/03/01 10:36:39;;;;;;;13.88;3.97;;;19.70;91.50;;;;;;4993905;28;20033;-49
2024/03/01 10:39:20;;;;;;;12.93;4.55;;;19.70;90.70;;;;;;4993764;28;20038;-51
2024/03/01 10:41:52;;;;;;;10.25;5.43;;;20.00;90.60;;;;;;4994066;28;20360;-51
2024/03/01 10:44:36;;;;;;;9.60;5.40;;;;;;;;;;4993840;28;20034;-52
2024/03/01 10:47:13;;;;;;;11.13;5.22;;;;;;;;;;4993798;28;20498;-51
2024/03/01 10:49:41;;;;;;;15.02;5.75;;;;;;;;;;4994963;28;20121;-51
2024/03/01 10:52:10;;;;;;;12.75;4.88;;;22.10;96.20;;;;;;4997815;28;20039;-52
2024/03/01 10:54:37;;;;;;;14.68;4.78;;;;;;;;;;4963618;28;20046;-50
2024/03/01 10:57:08;;;;;;;11.43;4.70;;;;;;;;;;4997782;28;20026;-49
2024/03/01 10:59:43;;;;;;;8.20;4.30;;;;;;;;;;4997776;28;20038;-52
2024/03/01 11:02:15;;;;;;;5.32;4.28;;;;;;;;;;4997886;28;20173;-50
2024/03/01 11:04:47;;;;;;;8.73;5.32;;;;;;;;;;4979317;28;20045;-49
2024/03/01 11:07:36;;;;;;;9.52;4.72;;;;;;;;;;4997450;28;20038;-49
2024/03/01 11:10:05;;;;;;;7.10;4.32;;;;;;;;;;4987504;28;20145;-51
2024/03/01 11:12:34;;;;;;;8.93;5.10;;;;;;;;;;4963556;28;20152;-49
2024/03/01 11:15:04;;;;;;;9.60;3.90;;;;;;;;;;4996411;28;20819;-50
2024/03/01 11:17:33;;;;;;;7.40;3.80;;;21.60;85.80;;;;;;4996946;28;20062;-49
2024/03/01 11:20:03;;;;;;;10.23;4.95;;;;;;;;;;4996833;28;20027;-51
2024/03/01 11:22:31;;;;;;;8.93;5.13;;;;;;;;;;4963035;28;20129;-48
2024/03/01 11:25:19;;;;;;;12.77;5.07;;;22.00;89.60;;;;;;4962529;28;20046;-49
2024/03/01 11:27:54;;;;;;;13.95;5.03;;;;;;;;;;4943026;28;20118;-53
2024/03/01 11:30:22;;;;;;;9.32;4.70;;;23.00;97.50;;;;;;4994600;28;20121;-48
2024/03/01 11:33:00;;;;;;;9.30;4.50;;;22.70;95.00;;;;;;4996417;28;20035;-53
2024/03/01 11:35:41;;;;;;;8.75;5.40;;;24.30;99.90;;;;;;4996543;28;20038;-47
2024/03/01 11:38:37;;;;;;;4.87;2.57;;;23.90;83.90;;;;;;4968735;28;20515;-46
2024/03/01 11:41:22;;;;;;;8.73;2.40;;;22.70;81.60;;;;;;4994745;28;20073;-49
2024/03/01 11:44:20;;;;;;;5.30;2.10;;;22.50;81.70;;;;;;4996958;28;20026;-51
2024/03/01 11:47:29;;;;;;;4.85;2.40;;;21.80;81.30;;;;;;4996848;28;20398;-52
2024/03/01 11:50:26;;;;;;;6.22;2.63;;;22.10;81.30;;;;;;4953584;28;20034;-52
2024/03/01 11:53:27;;;;;;;2.28;1.58;;;23.00;81.50;;;;;;4996742;28;20363;-52
2024/03/01 11:56:02;;;;;;;5.07;2.05;;;;;;;;;;4917647;29;20102;-50
2024/03/01 11:58:40;;;;;;;2.92;1.63;;;21.70;92.60;;;;;;4968774;28;20406;-49
2024/03/01 12:01:42;;;;;;;9.93;2.63;;;21.60;81.60;;;;;;4977192;28;20119;-49
2024/03/01 12:04:25;;;;;;;4.22;3.05;;;22.50;81.70;;;;;;4977215;28;20035;-48
2024/03/01 12:06:58;;;;;;;11.10;2.90;;;;;;;;;;4977148;28;20419;-49
2024/03/01 12:09:46;;;;;;;7.10;2.92;;;22.60;79.70;;;;;;4977105;28;20534;-49
2024/03/01 12:12:47;;;;;;;10.75;3.92;;;22.80;80.80;;;;;;4976990;28;20034;-53
2024/03/01 12:15:46;;;;;;;6.28;2.53;;;;;;;;;;4977019;28;20097;-51
2024/03/01 12:18:47;;;;;;;9.52;3.00;;;;;;;;;;4944821;28;20058;-51
2024/03/01 12:21:19;;;;;;;5.40;1.90;;;23.90;78.60;;;;;;4917276;29;20437;-52
2024/03/01 12:24:09;;;;;;;6.85;2.42;;;23.30;76.70;;;;;;4936701;28;20622;-48
2024/03/01 12:26:54;;;;;;;6.90;2.85;;;22.90;78.30;;;;;;4976872;28;20086;-51
2024/03/01 12:29:43;;;;;;;6.07;1.90;;;22.10;79.20;;;;;;4976704;28;20110;-51
2024/03/01 12:32:28;;;;;;;7.32;2.58;;;;;;;;;;4976571;28;20110;-51
2024/03/01 12:35:29;;;;;;;4.22;2.35;;;21.40;82.40;;;;;;4976653;28;20085;-51
2024/03/01 12:38:14;;;;;;;6.93;2.65;;;21.20;81.50;;;;;;4976735;28;20070;-50
2024/03/01 12:41:22;;;;;;;5.55;2.42;;;21.40;82.10;;;;;;4976495;28;20038;-51
2024/03/01 12:44:06;;;;;;;6.13;1.95;;;;;;;;;;4976343;28;20038;-50
2024/03/01 12:46:51;;;;;;;4.78;1.95;;;21.90;80.10;;;;;;4976431;28;20058;-51
2024/03/01 12:49:35;;;;;;;7.20;2.67;;;21.60;80.70;;;;;;4968070;28;20090;-48
2024/03/01 12:52:03;;;;;;;7.07;2.60;;;21.10;81.10;;;;;;4950014;29;20491;-58
2024/03/01 12:54:44;;;;;;;9.68;2.53;;;21.60;81.20;;;;;;4967444;28;20062;-56
2024/03/01 12:57:32;;;;;;;5.53;2.58;;;21.80;80.70;;;;;;4995231;28;20370;-54
2024/03/01 13:00:13;;;;;;;4.03;2.15;;;21.50;80.90;;;;;;4960639;28;20042;-55
2024/03/01 13:03:11;;;;;;;4.07;2.10;;;21.90;81.30;;;;;;4995483;28;20041;-55
2024/03/01 13:05:37;;;;;;;6.15;2.67;;;;;;;;;;4995151;28;20038;-54
2024/03/01 13:08:19;;;;;;;8.00;2.50;;;22.70;80.20;;;;;;4995314;28;20471;-54
2024/03/01 13:10:45;;;;;;;3.63;1.63;;;23.00;80.00;;;;;;4961298;28;20034;-55